sensor_id;sensor_type;location;lat;lon;timestamp;P1;durP1;ratioP1;P2;durP2;ratioP2
53519;SDS011;39397;53.204;5.778;2023-11-21T00:02:27;7.45;;;3.08;;
53519;SDS011;39397;53.204;5.778;2023-11-21T00:04:53;10.90;;;3.20;;
53519;SDS011;39397;53.204;5.778;2023-11-21T00:07:19;8.18;;;3.10;;
53519;SDS011;39397;53.204;5.778;2023-11-21T00:09:47;6.30;;;3.20;;
53519;SDS011;39397;53.204;5.778;2023-11-21T00:12:20;10.00;;;3.50;;
53519;SDS011;39397;53.204;5.778;2023-11-21T00:14:46;11.52;;;3.22;;
53519;SDS011;39397;53.204;5.778;2023-11-21T00:17:13;6.32;;;3.22;;
53519;SDS011;39397;53.204;5.778;2023-11-21T00:19:39;10.50;;;3.72;;
53519;SDS011;39397;53.204;5.778;2023-11-21T00:22:08;10.90;;;3.42;;
53519;SDS011;39397;53.204;5.778;2023-11-21T00:24:34;9.38;;;3.33;;
53519;SDS011;39397;53.204;5.778;2023-11-21T00:27:02;8.07;;;3.50;;
53519;SDS011;39397;53.204;5.778;2023-11-21T00:29:28;8.45;;;3.45;;
53519;SDS011;39397;53.204;5.778;2023-11-21T00:31:54;9.55;;;3.88;;
53519;SDS011;39397;53.204;5.778;2023-11-21T00:34:22;9.07;;;3.45;;
53519;SDS011;39397;53.204;5.778;2023-11-21T00:36:51;6.60;;;3.30;;
53519;SDS011;39397;53.204;5.778;2023-11-21T00:39:17;12.82;;;3.97;;
53519;SDS011;39397;53.204;5.778;2023-11-21T00:41:48;11.52;;;3.80;;
53519;SDS011;39397;53.204;5.778;2023-11-21T00:44:15;6.35;;;3.10;;
53519;SDS011;39397;53.204;5.778;2023-11-21T00:46:41;9.00;;;3.80;;
53519;SDS011;39397;53.204;5.778;2023-11-21T00:49:10;8.73;;;3.60;;
53519;SDS011;39397;53.204;5.778;2023-11-21T00:51:48;10.85;;;3.75;;
53519;SDS011;39397;53.204;5.778;2023-11-21T00:54:17;8.18;;;3.42;;
53519;SDS011;39397;53.204;5.778;2023-11-21T00:56:43;9.52;;;3.30;;
53519;SDS011;39397;53.204;5.778;2023-11-21T00:59:09;11.90;;;3.70;;
53519;SDS011;39397;53.204;5.778;2023-11-21T01:01:35;8.00;;;3.30;;
53519;SDS011;39397;53.204;5.778;2023-11-21T01:04:03;10.35;;;3.80;;
53519;SDS011;39397;53.204;5.778;2023-11-21T01:06:32;11.00;;;4.07;;
53519;SDS011;39397;53.204;5.778;2023-11-21T01:08:58;15.25;;;4.90;;
53519;SDS011;39397;53.204;5.778;2023-11-21T01:11:24;13.15;;;4.97;;
53519;SDS011;39397;53.204;5.778;2023-11-21T01:13:52;12.48;;;4.82;;
53519;SDS011;39397;53.204;5.778;2023-11-21T01:16:21;16.00;;;6.03;;
53519;SDS011;39397;53.204;5.778;2023-11-21T01:18:49;17.83;;;6.47;;
53519;SDS011;39397;53.204;5.778;2023-11-21T01:21:27;21.00;;;6.35;;
53519;SDS011;39397;53.204;5.778;2023-11-21T01:23:58;14.00;;;5.68;;
53519;SDS011;39397;53.204;5.778;2023-11-21T01:26:27;16.95;;;6.25;;
53519;SDS011;39397;53.204;5.778;2023-11-21T01:28:56;12.48;;;5.50;;
53519;SDS011;39397;53.204;5.778;2023-11-21T01:31:24;14.35;;;5.40;;
53519;SDS011;39397;53.204;5.778;2023-11-21T01:33:55;17.08;;;5.32;;
53519;SDS011;39397;53.204;5.778;2023-11-21T01:36:22;18.00;;;4.53;;
53519;SDS011;39397;53.204;5.778;2023-11-21T01:38:57;14.02;;;4.47;;
53519;SDS011;39397;53.204;5.778;2023-11-21T01:41:25;14.18;;;4.45;;
53519;SDS011;39397;53.204;5.778;2023-11-21T01:43:57;14.65;;;3.13;;
53519;SDS011;39397;53.204;5.778;2023-11-21T01:46:23;13.20;;;3.50;;
53519;SDS011;39397;53.204;5.778;2023-11-21T01:48:52;16.30;;;3.13;;
53519;SDS011;39397;53.204;5.778;2023-11-21T01:51:19;13.90;;;3.95;;
53519;SDS011;39397;53.204;5.778;2023-11-21T01:53:47;13.13;;;3.20;;
53519;SDS011;39397;53.204;5.778;2023-11-21T01:56:14;10.20;;;2.90;;
53519;SDS011;39397;53.204;5.778;2023-11-21T01:58:43;13.13;;;3.28;;
53519;SDS011;39397;53.204;5.778;2023-11-21T02:01:09;13.68;;;3.90;;
53519;SDS011;39397;53.204;5.778;2023-11-21T02:03:35;13.60;;;3.30;;
53519;SDS011;39397;53.204;5.778;2023-11-21T02:06:02;18.70;;;4.82;;
53519;SDS011;39397;53.204;5.778;2023-11-21T02:08:29;14.43;;;3.25;;
53519;SDS011;39397;53.204;5.778;2023-11-21T02:10:56;16.60;;;3.90;;
53519;SDS011;39397;53.204;5.778;2023-11-21T02:13:22;12.77;;;3.75;;
53519;SDS011;39397;53.204;5.778;2023-11-21T02:15:48;23.92;;;4.00;;
53519;SDS011;39397;53.204;5.778;2023-11-21T02:18:17;17.75;;;4.20;;
53519;SDS011;39397;53.204;5.778;2023-11-21T02:20:43;22.15;;;4.18;;
53519;SDS011;39397;53.204;5.778;2023-11-21T02:23:09;10.27;;;3.10;;
53519;SDS011;39397;53.204;5.778;2023-11-21T02:25:38;23.77;;;4.38;;
53519;SDS011;39397;53.204;5.778;2023-11-21T02:28:06;15.15;;;3.90;;
53519;SDS011;39397;53.204;5.778;2023-11-21T02:30:32;15.43;;;4.20;;
53519;SDS011;39397;53.204;5.778;2023-11-21T02:32:59;19.95;;;4.20;;
53519;SDS011;39397;53.204;5.778;2023-11-21T02:35:26;16.38;;;3.95;;
53519;SDS011;39397;53.204;5.778;2023-11-21T02:37:53;12.50;;;4.20;;
53519;SDS011;39397;53.204;5.778;2023-11-21T02:40:22;22.88;;;4.35;;
53519;SDS011;39397;53.204;5.778;2023-11-21T02:42:50;17.88;;;3.83;;
53519;SDS011;39397;53.204;5.778;2023-11-21T02:45:16;15.82;;;3.75;;
53519;SDS011;39397;53.204;5.778;2023-11-21T02:47:43;20.02;;;4.53;;
53519;SDS011;39397;53.204;5.778;2023-11-21T02:50:14;19.58;;;3.45;;
53519;SDS011;39397;53.204;5.778;2023-11-21T02:52:47;14.55;;;2.90;;
53519;SDS011;39397;53.204;5.778;2023-11-21T02:55:14;15.52;;;4.25;;
53519;SDS011;39397;53.204;5.778;2023-11-21T02:57:48;18.25;;;3.30;;
53519;SDS011;39397;53.204;5.778;2023-11-21T03:00:23;17.00;;;4.22;;
53519;SDS011;39397;53.204;5.778;2023-11-21T03:02:51;15.68;;;2.88;;
53519;SDS011;39397;53.204;5.778;2023-11-21T03:05:18;15.68;;;2.60;;
53519;SDS011;39397;53.204;5.778;2023-11-21T03:07:53;19.50;;;3.60;;
53519;SDS011;39397;53.204;5.778;2023-11-21T03:10:20;18.50;;;3.45;;
53519;SDS011;39397;53.204;5.778;2023-11-21T03:12:46;16.55;;;3.42;;
53519;SDS011;39397;53.204;5.778;2023-11-21T03:15:17;18.67;;;2.88;;
53519;SDS011;39397;53.204;5.778;2023-11-21T03:17:44;16.85;;;3.15;;
53519;SDS011;39397;53.204;5.778;2023-11-21T03:20:10;9.35;;;2.53;;
53519;SDS011;39397;53.204;5.778;2023-11-21T03:22:38;13.98;;;2.80;;
53519;SDS011;39397;53.204;5.778;2023-11-21T03:25:04;10.95;;;2.78;;
53519;SDS011;39397;53.204;5.778;2023-11-21T03:27:31;10.25;;;2.70;;
53519;SDS011;39397;53.204;5.778;2023-11-21T03:29:57;10.27;;;2.88;;
53519;SDS011;39397;53.204;5.778;2023-11-21T03:32:23;8.07;;;2.60;;
53519;SDS011;39397;53.204;5.778;2023-11-21T03:34:55;8.80;;;2.92;;
53519;SDS011;39397;53.204;5.778;2023-11-21T03:37:25;10.10;;;3.10;;
53519;SDS011;39397;53.204;5.778;2023-11-21T03:39:52;12.85;;;2.97;;
53519;SDS011;39397;53.204;5.778;2023-11-21T03:42:21;10.95;;;3.33;;
53519;SDS011;39397;53.204;5.778;2023-11-21T03:44:53;9.75;;;3.28;;
53519;SDS011;39397;53.204;5.778;2023-11-21T03:47:19;9.57;;;3.22;;
53519;SDS011;39397;53.204;5.778;2023-11-21T03:49:49;12.00;;;3.78;;
53519;SDS011;39397;53.204;5.778;2023-11-21T03:52:18;9.52;;;3.90;;
53519;SDS011;39397;53.204;5.778;2023-11-21T03:54:44;9.63;;;3.35;;
53519;SDS011;39397;53.204;5.778;2023-11-21T03:57:13;13.32;;;3.92;;
53519;SDS011;39397;53.204;5.778;2023-11-21T03:59:42;17.15;;;4.38;;
53519;SDS011;39397;53.204;5.778;2023-11-21T04:02:09;17.38;;;4.88;;
53519;SDS011;39397;53.204;5.778;2023-11-21T04:04:48;11.77;;;4.68;;
53519;SDS011;39397;53.204;5.778;2023-11-21T04:07:24;19.17;;;5.80;;
53519;SDS011;39397;53.204;5.778;2023-11-21T04:09:52;21.20;;;5.95;;
53519;SDS011;39397;53.204;5.778;2023-11-21T04:12:20;22.42;;;6.07;;
53519;SDS011;39397;53.204;5.778;2023-11-21T04:14:46;14.60;;;6.30;;
53519;SDS011;39397;53.204;5.778;2023-11-21T04:17:12;20.38;;;6.75;;
53519;SDS011;39397;53.204;5.778;2023-11-21T04:19:39;20.67;;;7.07;;
53519;SDS011;39397;53.204;5.778;2023-11-21T04:22:11;20.50;;;8.38;;
53519;SDS011;39397;53.204;5.778;2023-11-21T04:24:49;21.42;;;7.13;;
53519;SDS011;39397;53.204;5.778;2023-11-21T04:27:16;17.77;;;7.30;;
53519;SDS011;39397;53.204;5.778;2023-11-21T04:29:46;26.00;;;7.25;;
53519;SDS011;39397;53.204;5.778;2023-11-21T04:32:13;19.52;;;6.88;;
53519;SDS011;39397;53.204;5.778;2023-11-21T04:34:41;17.33;;;6.68;;
53519;SDS011;39397;53.204;5.778;2023-11-21T04:37:08;20.88;;;7.50;;
53519;SDS011;39397;53.204;5.778;2023-11-21T04:39:40;17.60;;;7.78;;
53519;SDS011;39397;53.204;5.778;2023-11-21T04:42:09;20.97;;;7.83;;
53519;SDS011;39397;53.204;5.778;2023-11-21T04:44:39;16.60;;;7.18;;
53519;SDS011;39397;53.204;5.778;2023-11-21T04:47:06;17.15;;;7.40;;
53519;SDS011;39397;53.204;5.778;2023-11-21T04:49:34;24.35;;;8.18;;
53519;SDS011;39397;53.204;5.778;2023-11-21T04:52:00;20.85;;;8.15;;
53519;SDS011;39397;53.204;5.778;2023-11-21T04:54:29;17.65;;;8.07;;
53519;SDS011;39397;53.204;5.778;2023-11-21T04:56:55;20.80;;;8.90;;
53519;SDS011;39397;53.204;5.778;2023-11-21T04:59:23;20.55;;;9.32;;
53519;SDS011;39397;53.204;5.778;2023-11-21T05:01:53;23.08;;;9.55;;
53519;SDS011;39397;53.204;5.778;2023-11-21T05:04:19;24.27;;;8.52;;
53519;SDS011;39397;53.204;5.778;2023-11-21T05:06:53;28.25;;;10.45;;
53519;SDS011;39397;53.204;5.778;2023-11-21T05:09:24;21.45;;;9.05;;
53519;SDS011;39397;53.204;5.778;2023-11-21T05:11:50;24.23;;;9.68;;
53519;SDS011;39397;53.204;5.778;2023-11-21T05:14:20;22.45;;;9.13;;
53519;SDS011;39397;53.204;5.778;2023-11-21T05:16:49;27.85;;;9.52;;
53519;SDS011;39397;53.204;5.778;2023-11-21T05:19:21;25.67;;;10.02;;
53519;SDS011;39397;53.204;5.778;2023-11-21T05:21:47;21.23;;;9.18;;
53519;SDS011;39397;53.204;5.778;2023-11-21T05:24:19;22.33;;;9.32;;
53519;SDS011;39397;53.204;5.778;2023-11-21T05:26:45;26.13;;;11.20;;
53519;SDS011;39397;53.204;5.778;2023-11-21T05:29:11;25.73;;;11.40;;
53519;SDS011;39397;53.204;5.778;2023-11-21T05:31:43;25.33;;;11.60;;
53519;SDS011;39397;53.204;5.778;2023-11-21T05:34:09;29.92;;;11.55;;
53519;SDS011;39397;53.204;5.778;2023-11-21T05:36:38;35.33;;;13.07;;
53519;SDS011;39397;53.204;5.778;2023-11-21T05:39:13;27.48;;;12.70;;
53519;SDS011;39397;53.204;5.778;2023-11-21T05:41:44;36.70;;;13.10;;
53519;SDS011;39397;53.204;5.778;2023-11-21T05:44:33;31.05;;;12.65;;
53519;SDS011;39397;53.204;5.778;2023-11-21T05:47:03;31.70;;;12.95;;
53519;SDS011;39397;53.204;5.778;2023-11-21T05:49:40;29.17;;;12.35;;
53519;SDS011;39397;53.204;5.778;2023-11-21T05:52:23;36.53;;;13.88;;
53519;SDS011;39397;53.204;5.778;2023-11-21T05:55:03;35.92;;;14.48;;
53519;SDS011;39397;53.204;5.778;2023-11-21T06:03:58;36.72;;;14.15;;
53519;SDS011;39397;53.204;5.778;2023-11-21T06:07:17;33.50;;;13.55;;
53519;SDS011;39397;53.204;5.778;2023-11-21T06:09:45;28.10;;;11.82;;
53519;SDS011;39397;53.204;5.778;2023-11-21T06:12:31;25.92;;;11.23;;
53519;SDS011;39397;53.204;5.778;2023-11-21T06:17:48;25.35;;;11.38;;
53519;SDS011;39397;53.204;5.778;2023-11-21T06:20:26;27.13;;;11.90;;
53519;SDS011;39397;53.204;5.778;2023-11-21T06:22:55;30.90;;;12.50;;
53519;SDS011;39397;53.204;5.778;2023-11-21T06:25:28;35.67;;;12.82;;
53519;SDS011;39397;53.204;5.778;2023-11-21T06:27:58;30.20;;;12.85;;
53519;SDS011;39397;53.204;5.778;2023-11-21T06:30:26;31.30;;;13.85;;
53519;SDS011;39397;53.204;5.778;2023-11-21T06:32:52;31.25;;;13.35;;
53519;SDS011;39397;53.204;5.778;2023-11-21T06:35:21;34.90;;;13.38;;
53519;SDS011;39397;53.204;5.778;2023-11-21T06:37:47;35.38;;;12.55;;
53519;SDS011;39397;53.204;5.778;2023-11-21T06:40:17;31.13;;;12.70;;
53519;SDS011;39397;53.204;5.778;2023-11-21T06:42:46;27.73;;;12.52;;
53519;SDS011;39397;53.204;5.778;2023-11-21T06:45:18;28.02;;;11.93;;
53519;SDS011;39397;53.204;5.778;2023-11-21T06:48:12;30.85;;;12.27;;
53519;SDS011;39397;53.204;5.778;2023-11-21T06:50:38;25.88;;;10.90;;
53519;SDS011;39397;53.204;5.778;2023-11-21T06:53:07;27.75;;;12.10;;
53519;SDS011;39397;53.204;5.778;2023-11-21T06:55:34;29.42;;;12.73;;
53519;SDS011;39397;53.204;5.778;2023-11-21T06:58:03;30.13;;;12.95;;
53519;SDS011;39397;53.204;5.778;2023-11-21T07:00:32;43.53;;;12.82;;
53519;SDS011;39397;53.204;5.778;2023-11-21T07:03:01;28.23;;;13.18;;
53519;SDS011;39397;53.204;5.778;2023-11-21T07:05:32;32.72;;;13.60;;
53519;SDS011;39397;53.204;5.778;2023-11-21T07:08:02;29.92;;;14.35;;
53519;SDS011;39397;53.204;5.778;2023-11-21T07:10:39;29.02;;;13.85;;
53519;SDS011;39397;53.204;5.778;2023-11-21T07:13:08;31.45;;;14.38;;
53519;SDS011;39397;53.204;5.778;2023-11-21T07:15:40;23.85;;;13.05;;
53519;SDS011;39397;53.204;5.778;2023-11-21T07:18:08;26.15;;;13.75;;
53519;SDS011;39397;53.204;5.778;2023-11-21T07:20:37;22.25;;;13.32;;
53519;SDS011;39397;53.204;5.778;2023-11-21T07:23:03;21.33;;;12.20;;
53519;SDS011;39397;53.204;5.778;2023-11-21T07:25:29;20.50;;;11.40;;
53519;SDS011;39397;53.204;5.778;2023-11-21T07:28:07;19.75;;;11.55;;
53519;SDS011;39397;53.204;5.778;2023-11-21T07:30:33;20.38;;;11.75;;
53519;SDS011;39397;53.204;5.778;2023-11-21T07:33:02;20.13;;;10.80;;
53519;SDS011;39397;53.204;5.778;2023-11-21T07:35:54;19.17;;;10.75;;
53519;SDS011;39397;53.204;5.778;2023-11-21T07:38:23;14.38;;;9.68;;
53519;SDS011;39397;53.204;5.778;2023-11-21T07:40:49;18.58;;;10.48;;
53519;SDS011;39397;53.204;5.778;2023-11-21T07:43:17;16.52;;;10.93;;
53519;SDS011;39397;53.204;5.778;2023-11-21T07:45:55;17.17;;;10.43;;
53519;SDS011;39397;53.204;5.778;2023-11-21T07:48:23;19.55;;;11.45;;
53519;SDS011;39397;53.204;5.778;2023-11-21T07:50:58;19.38;;;11.10;;
53519;SDS011;39397;53.204;5.778;2023-11-21T07:53:24;17.10;;;10.75;;
53519;SDS011;39397;53.204;5.778;2023-11-21T07:55:59;19.58;;;11.00;;
53519;SDS011;39397;53.204;5.778;2023-11-21T07:58:38;20.40;;;11.73;;
53519;SDS011;39397;53.204;5.778;2023-11-21T08:01:04;22.23;;;12.75;;
53519;SDS011;39397;53.204;5.778;2023-11-21T08:03:30;19.20;;;10.70;;
53519;SDS011;39397;53.204;5.778;2023-11-21T08:05:59;21.63;;;12.07;;
53519;SDS011;39397;53.204;5.778;2023-11-21T08:08:28;20.67;;;12.02;;
53519;SDS011;39397;53.204;5.778;2023-11-21T08:10:59;16.92;;;11.02;;
53519;SDS011;39397;53.204;5.778;2023-11-21T08:13:27;17.73;;;10.82;;
53519;SDS011;39397;53.204;5.778;2023-11-21T08:16:05;18.98;;;10.52;;
53519;SDS011;39397;53.204;5.778;2023-11-21T08:18:32;17.45;;;10.25;;
53519;SDS011;39397;53.204;5.778;2023-11-21T08:20:59;17.30;;;11.23;;
53519;SDS011;39397;53.204;5.778;2023-11-21T08:23:48;18.73;;;10.27;;
53519;SDS011;39397;53.204;5.778;2023-11-21T08:26:21;16.55;;;10.25;;
53519;SDS011;39397;53.204;5.778;2023-11-21T08:28:49;13.35;;;8.35;;
53519;SDS011;39397;53.204;5.778;2023-11-21T08:31:23;13.65;;;8.98;;
53519;SDS011;39397;53.204;5.778;2023-11-21T08:33:50;13.75;;;8.85;;
53519;SDS011;39397;53.204;5.778;2023-11-21T08:36:18;15.25;;;8.88;;
53519;SDS011;39397;53.204;5.778;2023-11-21T08:38:46;16.02;;;8.88;;
53519;SDS011;39397;53.204;5.778;2023-11-21T08:41:32;15.50;;;8.70;;
53519;SDS011;39397;53.204;5.778;2023-11-21T08:44:06;14.65;;;8.98;;
53519;SDS011;39397;53.204;5.778;2023-11-21T08:46:32;13.55;;;7.53;;
53519;SDS011;39397;53.204;5.778;2023-11-21T08:49:01;12.70;;;8.05;;
53519;SDS011;39397;53.204;5.778;2023-11-21T08:51:27;12.43;;;7.75;;
53519;SDS011;39397;53.204;5.778;2023-11-21T08:54:00;13.25;;;8.68;;
53519;SDS011;39397;53.204;5.778;2023-11-21T08:56:32;14.10;;;8.20;;
53519;SDS011;39397;53.204;5.778;2023-11-21T08:59:00;13.10;;;8.05;;
53519;SDS011;39397;53.204;5.778;2023-11-21T09:01:28;12.18;;;8.57;;
53519;SDS011;39397;53.204;5.778;2023-11-21T09:03:57;11.13;;;7.80;;
53519;SDS011;39397;53.204;5.778;2023-11-21T09:06:23;10.85;;;6.70;;
53519;SDS011;39397;53.204;5.778;2023-11-21T09:08:52;10.02;;;6.60;;
53519;SDS011;39397;53.204;5.778;2023-11-21T09:11:18;8.65;;;5.95;;
53519;SDS011;39397;53.204;5.778;2023-11-21T09:13:44;8.85;;;5.18;;
53519;SDS011;39397;53.204;5.778;2023-11-21T09:16:22;6.55;;;4.00;;
53519;SDS011;39397;53.204;5.778;2023-11-21T09:18:50;6.20;;;3.53;;
53519;SDS011;39397;53.204;5.778;2023-11-21T09:21:16;5.35;;;3.20;;
53519;SDS011;39397;53.204;5.778;2023-11-21T09:23:51;6.30;;;3.28;;
53519;SDS011;39397;53.204;5.778;2023-11-21T09:26:18;7.03;;;4.60;;
53519;SDS011;39397;53.204;5.778;2023-11-21T09:28:46;9.48;;;4.95;;
53519;SDS011;39397;53.204;5.778;2023-11-21T09:31:17;10.43;;;6.35;;
53519;SDS011;39397;53.204;5.778;2023-11-21T09:33:48;11.70;;;7.20;;
53519;SDS011;39397;53.204;5.778;2023-11-21T09:36:13;10.38;;;7.25;;
53519;SDS011;39397;53.204;5.778;2023-11-21T09:38:48;12.18;;;7.97;;
53519;SDS011;39397;53.204;5.778;2023-11-21T09:44:13;14.55;;;8.55;;
53519;SDS011;39397;53.204;5.778;2023-11-21T09:46:44;11.50;;;8.18;;
53519;SDS011;39397;53.204;5.778;2023-11-21T09:49:20;11.82;;;8.00;;
53519;SDS011;39397;53.204;5.778;2023-11-21T09:51:50;11.82;;;8.27;;
53519;SDS011;39397;53.204;5.778;2023-11-21T09:54:28;12.35;;;8.02;;
53519;SDS011;39397;53.204;5.778;2023-11-21T09:56:57;10.52;;;7.70;;
53519;SDS011;39397;53.204;5.778;2023-11-21T09:59:25;8.80;;;6.40;;
53519;SDS011;39397;53.204;5.778;2023-11-21T10:04:25;10.93;;;6.97;;
53519;SDS011;39397;53.204;5.778;2023-11-21T10:06:53;10.23;;;6.60;;
53519;SDS011;39397;53.204;5.778;2023-11-21T10:09:23;10.07;;;6.57;;
53519;SDS011;39397;53.204;5.778;2023-11-21T10:11:52;11.27;;;6.97;;
53519;SDS011;39397;53.204;5.778;2023-11-21T10:14:19;10.68;;;7.35;;
53519;SDS011;39397;53.204;5.778;2023-11-21T10:16:50;11.43;;;7.35;;
53519;SDS011;39397;53.204;5.778;2023-11-21T10:19:18;10.90;;;6.95;;
53519;SDS011;39397;53.204;5.778;2023-11-21T10:21:49;11.82;;;6.80;;
53519;SDS011;39397;53.204;5.778;2023-11-21T10:24:16;10.50;;;6.45;;
53519;SDS011;39397;53.204;5.778;2023-11-21T10:26:45;10.85;;;6.82;;
53519;SDS011;39397;53.204;5.778;2023-11-21T10:29:16;11.15;;;6.95;;
53519;SDS011;39397;53.204;5.778;2023-11-21T10:32:04;11.10;;;8.05;;
53519;SDS011;39397;53.204;5.778;2023-11-21T10:34:35;10.98;;;8.25;;
53519;SDS011;39397;53.204;5.778;2023-11-21T10:37:22;13.27;;;8.45;;
53519;SDS011;39397;53.204;5.778;2023-11-21T10:40:11;11.98;;;8.25;;
53519;SDS011;39397;53.204;5.778;2023-11-21T10:42:39;10.75;;;8.25;;
53519;SDS011;39397;53.204;5.778;2023-11-21T10:45:08;12.00;;;8.10;;
53519;SDS011;39397;53.204;5.778;2023-11-21T10:47:43;10.75;;;8.50;;
53519;SDS011;39397;53.204;5.778;2023-11-21T10:50:12;11.75;;;8.30;;
53519;SDS011;39397;53.204;5.778;2023-11-21T10:53:03;11.73;;;8.18;;
53519;SDS011;39397;53.204;5.778;2023-11-21T10:55:42;11.30;;;7.82;;
53519;SDS011;39397;53.204;5.778;2023-11-21T10:58:15;9.55;;;6.97;;
53519;SDS011;39397;53.204;5.778;2023-11-21T11:00:48;9.52;;;6.50;;
53519;SDS011;39397;53.204;5.778;2023-11-21T11:03:17;8.68;;;6.95;;
53519;SDS011;39397;53.204;5.778;2023-11-21T11:05:43;10.70;;;7.05;;
53519;SDS011;39397;53.204;5.778;2023-11-21T11:08:20;12.65;;;7.25;;
53519;SDS011;39397;53.204;5.778;2023-11-21T11:10:51;10.35;;;6.97;;
53519;SDS011;39397;53.204;5.778;2023-11-21T11:13:19;8.20;;;6.38;;
53519;SDS011;39397;53.204;5.778;2023-11-21T11:15:50;9.82;;;6.53;;
53519;SDS011;39397;53.204;5.778;2023-11-21T11:18:30;11.25;;;6.75;;
53519;SDS011;39397;53.204;5.778;2023-11-21T11:21:18;12.40;;;7.05;;
53519;SDS011;39397;53.204;5.778;2023-11-21T11:26:58;13.10;;;7.20;;
53519;SDS011;39397;53.204;5.778;2023-11-21T11:30:06;9.98;;;6.93;;
53519;SDS011;39397;53.204;5.778;2023-11-21T11:33:09;9.75;;;6.88;;
53519;SDS011;39397;53.204;5.778;2023-11-21T11:38:56;9.93;;;6.07;;
53519;SDS011;39397;53.204;5.778;2023-11-21T11:41:25;9.18;;;6.13;;
53519;SDS011;39397;53.204;5.778;2023-11-21T11:43:54;8.05;;;5.63;;
53519;SDS011;39397;53.204;5.778;2023-11-21T11:49:31;9.63;;;6.45;;
53519;SDS011;39397;53.204;5.778;2023-11-21T11:55:20;7.85;;;5.35;;
53519;SDS011;39397;53.204;5.778;2023-11-21T11:57:58;7.25;;;4.75;;
53519;SDS011;39397;53.204;5.778;2023-11-21T12:04:23;9.65;;;5.55;;
53519;SDS011;39397;53.204;5.778;2023-11-21T12:06:56;8.10;;;5.50;;
53519;SDS011;39397;53.204;5.778;2023-11-21T12:11:56;6.75;;;4.22;;
53519;SDS011;39397;53.204;5.778;2023-11-21T12:14:28;8.45;;;4.68;;
53519;SDS011;39397;53.204;5.778;2023-11-21T12:17:29;6.63;;;4.30;;
53519;SDS011;39397;53.204;5.778;2023-11-21T12:20:04;6.10;;;3.90;;
53519;SDS011;39397;53.204;5.778;2023-11-21T12:32:40;6.88;;;4.28;;
53519;SDS011;39397;53.204;5.778;2023-11-21T12:35:17;5.30;;;3.50;;
53519;SDS011;39397;53.204;5.778;2023-11-21T12:41:19;6.45;;;3.72;;
53519;SDS011;39397;53.204;5.778;2023-11-21T12:43:47;5.90;;;3.45;;
53519;SDS011;39397;53.204;5.778;2023-11-21T12:46:24;6.07;;;4.10;;
53519;SDS011;39397;53.204;5.778;2023-11-21T12:49:11;5.40;;;3.72;;
53519;SDS011;39397;53.204;5.778;2023-11-21T12:51:45;8.27;;;3.95;;
53519;SDS011;39397;53.204;5.778;2023-11-21T12:54:19;5.95;;;4.25;;
53519;SDS011;39397;53.204;5.778;2023-11-21T12:56:58;6.13;;;4.10;;
53519;SDS011;39397;53.204;5.778;2023-11-21T12:59:25;7.43;;;3.90;;
53519;SDS011;39397;53.204;5.778;2023-11-21T13:01:58;5.03;;;3.30;;
53519;SDS011;39397;53.204;5.778;2023-11-21T13:04:33;6.07;;;3.63;;
53519;SDS011;39397;53.204;5.778;2023-11-21T13:07:03;7.70;;;4.63;;
53519;SDS011;39397;53.204;5.778;2023-11-21T13:09:54;7.00;;;4.45;;
53519;SDS011;39397;53.204;5.778;2023-11-21T13:12:28;6.95;;;4.28;;
53519;SDS011;39397;53.204;5.778;2023-11-21T13:15:38;8.55;;;4.43;;
53519;SDS011;39397;53.204;5.778;2023-11-21T13:18:59;6.05;;;4.38;;
53519;SDS011;39397;53.204;5.778;2023-11-21T13:21:41;8.30;;;5.22;;
53519;SDS011;39397;53.204;5.778;2023-11-21T13:24:18;6.82;;;4.43;;
53519;SDS011;39397;53.204;5.778;2023-11-21T13:26:54;7.80;;;5.47;;
53519;SDS011;39397;53.204;5.778;2023-11-21T13:29:20;6.50;;;4.45;;
53519;SDS011;39397;53.204;5.778;2023-11-21T13:32:12;7.18;;;4.45;;
53519;SDS011;39397;53.204;5.778;2023-11-21T13:34:42;7.15;;;4.18;;
53519;SDS011;39397;53.204;5.778;2023-11-21T13:37:29;7.78;;;4.70;;
53519;SDS011;39397;53.204;5.778;2023-11-21T13:40:05;8.23;;;4.60;;
53519;SDS011;39397;53.204;5.778;2023-11-21T13:42:47;7.45;;;4.50;;
53519;SDS011;39397;53.204;5.778;2023-11-21T13:45:21;8.55;;;5.03;;
53519;SDS011;39397;53.204;5.778;2023-11-21T13:47:50;7.18;;;4.70;;
53519;SDS011;39397;53.204;5.778;2023-11-21T13:50:32;8.10;;;5.57;;
53519;SDS011;39397;53.204;5.778;2023-11-21T13:52:59;7.90;;;5.43;;
53519;SDS011;39397;53.204;5.778;2023-11-21T13:55:51;8.35;;;4.85;;
53519;SDS011;39397;53.204;5.778;2023-11-21T13:58:28;7.97;;;5.25;;
53519;SDS011;39397;53.204;5.778;2023-11-21T14:01:26;8.80;;;5.57;;
53519;SDS011;39397;53.204;5.778;2023-11-21T14:10:20;10.10;;;7.72;;
53519;SDS011;39397;53.204;5.778;2023-11-21T14:12:51;11.95;;;7.68;;
53519;SDS011;39397;53.204;5.778;2023-11-21T14:15:22;12.75;;;8.02;;
53519;SDS011;39397;53.204;5.778;2023-11-21T14:17:53;12.98;;;7.45;;
53519;SDS011;39397;53.204;5.778;2023-11-21T14:20:23;10.98;;;7.20;;
53519;SDS011;39397;53.204;5.778;2023-11-21T14:22:54;9.30;;;6.70;;
53519;SDS011;39397;53.204;5.778;2023-11-21T14:25:23;11.98;;;6.80;;
53519;SDS011;39397;53.204;5.778;2023-11-21T14:27:49;9.63;;;6.65;;
53519;SDS011;39397;53.204;5.778;2023-11-21T14:30:18;10.70;;;6.57;;
53519;SDS011;39397;53.204;5.778;2023-11-21T14:32:50;12.25;;;6.57;;
53519;SDS011;39397;53.204;5.778;2023-11-21T14:35:18;9.50;;;5.78;;
53519;SDS011;39397;53.204;5.778;2023-11-21T14:37:54;10.20;;;5.45;;
53519;SDS011;39397;53.204;5.778;2023-11-21T14:40:23;10.52;;;5.75;;
53519;SDS011;39397;53.204;5.778;2023-11-21T14:43:09;8.15;;;5.68;;
53519;SDS011;39397;53.204;5.778;2023-11-21T14:45:35;8.95;;;4.65;;
53519;SDS011;39397;53.204;5.778;2023-11-21T14:48:01;6.85;;;4.43;;
53519;SDS011;39397;53.204;5.778;2023-11-21T14:50:41;7.97;;;4.70;;
53519;SDS011;39397;53.204;5.778;2023-11-21T14:53:11;6.25;;;4.53;;
53519;SDS011;39397;53.204;5.778;2023-11-21T14:55:40;8.18;;;4.45;;
53519;SDS011;39397;53.204;5.778;2023-11-21T14:58:14;7.40;;;4.03;;
53519;SDS011;39397;53.204;5.778;2023-11-21T15:00:48;7.60;;;3.47;;
53519;SDS011;39397;53.204;5.778;2023-11-21T15:03:16;7.03;;;3.30;;
53519;SDS011;39397;53.204;5.778;2023-11-21T15:08:55;7.10;;;3.50;;
53519;SDS011;39397;53.204;5.778;2023-11-21T15:11:35;6.53;;;3.40;;
53519;SDS011;39397;53.204;5.778;2023-11-21T15:14:03;6.13;;;3.20;;
53519;SDS011;39397;53.204;5.778;2023-11-21T15:16:41;6.68;;;4.00;;
53519;SDS011;39397;53.204;5.778;2023-11-21T15:19:12;6.75;;;3.80;;
53519;SDS011;39397;53.204;5.778;2023-11-21T15:21:46;4.55;;;2.65;;
53519;SDS011;39397;53.204;5.778;2023-11-21T15:24:12;8.10;;;3.38;;
53519;SDS011;39397;53.204;5.778;2023-11-21T15:26:43;7.88;;;3.67;;
53519;SDS011;39397;53.204;5.778;2023-11-21T15:29:14;7.60;;;4.13;;
53519;SDS011;39397;53.204;5.778;2023-11-21T15:31:51;8.68;;;4.30;;
53519;SDS011;39397;53.204;5.778;2023-11-21T15:34:21;8.40;;;4.03;;
53519;SDS011;39397;53.204;5.778;2023-11-21T15:36:47;7.47;;;3.58;;
53519;SDS011;39397;53.204;5.778;2023-11-21T15:39:18;8.65;;;3.75;;
53519;SDS011;39397;53.204;5.778;2023-11-21T15:41:44;7.13;;;3.55;;
53519;SDS011;39397;53.204;5.778;2023-11-21T15:44:09;7.15;;;4.05;;
53519;SDS011;39397;53.204;5.778;2023-11-21T15:46:36;6.97;;;3.97;;
53519;SDS011;39397;53.204;5.778;2023-11-21T15:49:07;7.45;;;3.63;;
53519;SDS011;39397;53.204;5.778;2023-11-21T15:51:45;9.43;;;4.22;;
53519;SDS011;39397;53.204;5.778;2023-11-21T15:54:18;8.43;;;4.05;;
53519;SDS011;39397;53.204;5.778;2023-11-21T15:56:56;13.13;;;4.05;;
53519;SDS011;39397;53.204;5.778;2023-11-21T15:59:24;5.65;;;3.50;;